createdAt,value
2017-12-04T06:35:24.538Z,91.20
2017-12-04T06:37:52.088Z,91.30
2017-12-04T06:40:19.575Z,91.30
2017-12-04T06:42:47.082Z,91.30
2017-12-04T06:45:15.343Z,91.40
2017-12-04T06:47:42.871Z,91.40
2017-12-04T06:50:10.383Z,91.40
2017-12-04T06:52:38.645Z,91.50
2017-12-04T06:55:06.146Z,91.40
2017-12-04T06:57:33.666Z,91.50
2017-12-04T07:00:01.996Z,91.40
2017-12-04T07:02:29.499Z,91.40
2017-12-04T07:04:56.990Z,91.40
2017-12-04T07:07:24.531Z,91.40
2017-12-04T07:09:52.793Z,91.30
2017-12-04T07:12:20.296Z,91.30
2017-12-04T07:14:47.831Z,91.30
2017-12-04T07:17:15.340Z,91.30
2017-12-04T07:19:42.885Z,91.30
2017-12-04T07:22:10.422Z,91.50
2017-12-04T07:24:45.512Z,91.20
2017-12-04T07:27:13.047Z,91.20
2017-12-04T07:29:40.615Z,91.20
2017-12-04T07:32:08.140Z,91.20
2017-12-04T07:34:35.622Z,91.20
2017-12-04T07:37:03.138Z,91.20
2017-12-04T07:39:31.432Z,91.10
2017-12-04T07:41:58.962Z,91.10
2017-12-04T07:44:27.211Z,91.00
2017-12-04T07:46:54.695Z,91.00
2017-12-04T07:49:22.947Z,91.00
2017-12-04T07:51:50.418Z,91.00
2017-12-04T07:54:17.926Z,91.00
2017-12-04T07:56:45.468Z,91.00
2017-12-04T07:59:12.978Z,91.00
2017-12-04T08:02:01.937Z,90.90
2017-12-04T08:04:35.523Z,90.90
2017-12-04T08:07:03.013Z,90.90
2017-12-04T08:09:31.533Z,90.80
2017-12-04T09:15:04.586Z,90.40
2017-12-04T09:17:32.089Z,90.40
2017-12-04T09:19:59.617Z,90.60
2017-12-04T09:22:27.135Z,90.60
2017-12-04T09:24:55.559Z,90.60
2017-12-04T09:27:23.063Z,90.50
2017-12-04T09:29:50.575Z,90.50
2017-12-04T09:32:18.080Z,90.40
2017-12-04T09:34:45.636Z,90.40
2017-12-04T09:37:13.196Z,90.40
2017-12-04T09:39:40.757Z,90.20
2017-12-04T09:42:08.301Z,90.20
2017-12-04T09:44:35.873Z,90.10
2017-12-04T09:47:03.382Z,90.10
2017-12-04T09:49:30.884Z,90.00
2017-12-04T09:51:58.382Z,89.80
2017-12-04T09:54:25.934Z,89.50
2017-12-04T09:56:53.501Z,89.40
2017-12-04T09:59:21.059Z,89.30
2017-12-04T10:01:48.646Z,89.00
2017-12-04T10:11:34.731Z,88.70
2017-12-04T10:14:02.272Z,88.40
2017-12-04T10:16:30.520Z,88.50
2017-12-04T10:18:58.059Z,88.50
2017-12-04T10:21:25.559Z,88.50
2017-12-04T10:23:54.446Z,88.50
2017-12-04T10:26:22.687Z,88.80
2017-12-04T10:28:50.202Z,88.70
2017-12-04T10:31:17.734Z,89.10
2017-12-04T10:33:45.240Z,89.60
2017-12-04T10:36:12.755Z,89.70
2017-12-04T10:38:41.039Z,89.90
2017-12-04T10:41:09.347Z,90.00
2017-12-04T10:43:36.842Z,89.90
2017-12-04T10:49:07.690Z,90.00
2017-12-04T10:51:35.202Z,90.00
2017-12-04T10:54:03.471Z,89.60
2017-12-04T10:56:31.018Z,89.50
2017-12-04T10:58:58.475Z,89.40
2017-12-04T11:01:25.989Z,89.10
2017-12-04T11:03:53.502Z,89.20
2017-12-04T11:06:20.990Z,89.30
2017-12-04T11:08:54.382Z,89.40
2017-12-04T11:11:21.885Z,89.10
2017-12-04T11:13:49.350Z,89.10
2017-12-04T11:16:16.862Z,89.10
2017-12-04T11:18:45.104Z,89.50
2017-12-04T11:21:13.341Z,89.30
2017-12-04T11:23:40.830Z,89.30
2017-12-04T11:26:09.102Z,89.20
2017-12-04T11:28:36.647Z,89.10
2017-12-04T11:31:04.114Z,89.20
2017-12-04T11:33:31.674Z,89.30
2017-12-04T11:35:59.172Z,89.50
2017-12-04T11:38:26.715Z,89.60
2017-12-04T11:40:54.186Z,89.60
2017-12-04T11:43:21.707Z,89.60
2017-12-04T11:45:49.256Z,89.60
2017-12-04T11:48:16.771Z,89.50
2017-12-04T11:50:44.308Z,89.70
2017-12-04T11:53:11.845Z,89.40
2017-12-04T11:55:39.331Z,89.40
2017-12-04T11:58:06.802Z,89.20
2017-12-04T12:00:34.287Z,89.30
2017-12-04T12:03:01.802Z,89.50
2017-12-04T12:05:29.294Z,89.50
2017-12-04T12:07:56.842Z,90.00
2017-12-04T12:10:24.336Z,89.60
2017-12-04T12:12:51.904Z,89.70
2017-12-04T12:15:19.381Z,89.70
2017-12-04T12:17:47.662Z,89.70
2017-12-04T12:20:15.951Z,89.50
2017-12-04T12:22:43.517Z,89.40
2017-12-04T12:25:10.996Z,89.60
2017-12-04T12:27:38.473Z,89.30
2017-12-04T12:30:05.954Z,89.20
2017-12-04T12:32:33.439Z,89.20
2017-12-04T12:35:00.922Z,89.10
2017-12-04T12:37:28.409Z,89.00
2017-12-04T12:39:55.970Z,88.70
2017-12-04T12:42:23.461Z,89.00
2017-12-04T12:44:51.741Z,87.90
2017-12-04T12:47:20.016Z,87.50
2017-12-04T12:49:48.326Z,87.30
2017-12-04T12:52:15.837Z,87.20
2017-12-04T12:54:44.074Z,87.40
2017-12-04T12:57:11.597Z,87.20
2017-12-04T12:59:39.094Z,86.60
2017-12-04T13:02:06.599Z,86.40
2017-12-04T13:04:34.871Z,86.30
2017-12-04T13:07:03.159Z,86.50
2017-12-04T13:09:30.661Z,86.40
2017-12-04T13:11:58.222Z,86.30
2017-12-04T13:14:25.709Z,86.40
2017-12-04T13:16:53.230Z,86.40
2017-12-04T13:19:20.786Z,86.40
2017-12-04T13:21:48.323Z,86.50
2017-12-04T13:24:16.569Z,86.50
2017-12-04T13:26:44.126Z,86.40
2017-12-04T13:29:11.662Z,86.70
2017-12-04T13:31:39.141Z,86.70
2017-12-04T13:34:18.225Z,86.60
2017-12-04T13:36:51.187Z,86.80
2017-12-04T13:39:18.664Z,87.20
2017-12-04T13:41:46.171Z,87.10
2017-12-04T13:44:13.683Z,87.20
2017-12-04T13:46:41.198Z,87.20
2017-12-04T13:49:08.706Z,87.20
2017-12-04T13:51:36.194Z,87.10
2017-12-04T13:54:03.703Z,87.10
2017-12-04T13:56:31.191Z,87.10
2017-12-04T13:58:58.694Z,87.20
2017-12-04T14:01:26.979Z,87.40
2017-12-04T14:03:55.239Z,87.50
2017-12-04T14:06:22.762Z,87.50
2017-12-04T14:08:50.372Z,87.50
2017-12-04T14:11:18.682Z,87.60
2017-12-04T14:13:46.167Z,87.60
2017-12-04T14:16:14.347Z,87.60
2017-12-04T14:18:41.855Z,87.60
2017-12-04T14:21:09.405Z,87.70
2017-12-04T14:23:37.671Z,87.80
2017-12-04T14:26:05.923Z,88.00
2017-12-04T14:28:33.480Z,87.90
2017-12-04T14:31:00.999Z,88.10
2017-12-04T14:33:29.512Z,88.20
2017-12-04T14:35:57.029Z,88.40
2017-12-04T14:38:24.584Z,88.50
2017-12-04T14:40:52.140Z,88.40
2017-12-04T14:43:19.670Z,88.50
2017-12-04T14:45:47.160Z,88.50
2017-12-04T14:48:14.695Z,88.50
2017-12-04T14:50:42.202Z,88.70
2017-12-04T14:53:09.675Z,88.70
2017-12-04T14:55:37.195Z,89.00
2017-12-04T14:58:04.743Z,89.10
2017-12-04T15:00:32.985Z,89.30
2017-12-04T15:03:00.505Z,89.20
2017-12-04T15:05:27.994Z,89.30
2017-12-04T15:07:55.547Z,89.30
2017-12-04T15:10:23.020Z,89.30
2017-12-04T15:12:50.573Z,89.40
2017-12-04T15:15:18.075Z,89.40
2017-12-04T15:17:45.561Z,89.50
2017-12-04T15:20:13.043Z,89.70
2017-12-04T15:22:40.551Z,89.80
2017-12-04T15:25:08.802Z,90.00
2017-12-04T15:27:36.325Z,90.00
2017-12-04T15:30:03.854Z,90.00
2017-12-04T15:32:31.366Z,90.00
2017-12-04T15:34:58.885Z,90.00
2017-12-04T15:37:26.372Z,90.10
2017-12-04T15:39:53.860Z,90.10
2017-12-04T15:42:22.143Z,90.10
2017-12-04T15:44:50.406Z,90.20
2017-12-04T15:47:18.693Z,90.20
2017-12-04T15:49:46.187Z,90.20
2017-12-04T15:52:13.728Z,90.30
2017-12-04T15:54:41.263Z,90.30
2017-12-04T15:57:08.810Z,90.30
2017-12-04T15:59:36.289Z,90.40
2017-12-04T16:02:04.561Z,90.60
2017-12-04T16:04:32.851Z,90.60
2017-12-04T16:07:01.135Z,90.60
2017-12-04T16:09:28.676Z,90.60
2017-12-04T16:11:56.972Z,90.70
2017-12-04T16:14:24.519Z,90.70
2017-12-04T16:16:52.844Z,90.80
2017-12-04T16:19:20.399Z,90.70
2017-12-04T16:21:47.918Z,90.70
2017-12-04T16:24:16.187Z,90.90
2017-12-04T16:26:43.713Z,90.90
2017-12-04T16:29:11.202Z,90.90
2017-12-04T16:31:38.750Z,91.00
2017-12-04T16:34:06.238Z,91.10
2017-12-04T16:36:33.707Z,91.10
2017-12-04T16:39:01.206Z,91.10
2017-12-04T16:41:28.761Z,91.20
2017-12-04T16:43:56.270Z,91.20
2017-12-04T16:46:23.786Z,91.30
2017-12-04T16:48:51.918Z,91.30
2017-12-04T16:51:19.466Z,91.30
2017-12-04T16:53:53.153Z,91.30
2017-12-04T16:56:20.704Z,91.20
2017-12-04T16:58:48.959Z,91.20
2017-12-04T17:01:16.476Z,91.20
2017-12-04T17:03:43.997Z,91.20
2017-12-04T17:06:12.276Z,91.20
2017-12-04T17:08:40.556Z,91.20
2017-12-04T17:11:08.822Z,91.20
2017-12-04T17:13:36.326Z,91.10
2017-12-04T17:16:03.858Z,91.10
2017-12-04T17:18:32.119Z,91.00
2017-12-04T17:21:00.428Z,91.00
2017-12-04T17:23:27.977Z,91.00
2017-12-04T17:25:55.735Z,91.00
2017-12-04T17:28:23.516Z,91.00
2017-12-04T17:30:51.376Z,91.00
2017-12-04T17:33:39.183Z,90.90
2017-12-04T17:36:06.737Z,90.90
2017-12-04T17:38:34.223Z,90.90
2017-12-04T17:41:01.765Z,90.90
2017-12-04T17:43:29.291Z,90.90
2017-12-04T17:45:56.846Z,90.90
2017-12-04T17:48:24.343Z,90.90
2017-12-04T17:50:52.620Z,90.90
2017-12-04T17:53:20.919Z,90.90
2017-12-04T17:55:48.434Z,90.90
2017-12-04T17:58:15.934Z,90.90
2017-12-04T18:00:43.477Z,91.00
2017-12-04T18:03:11.774Z,91.00
2017-12-04T18:05:39.343Z,91.00
2017-12-04T18:08:06.844Z,91.00
2017-12-04T18:10:34.362Z,91.00
2017-12-04T18:13:01.854Z,91.00
2017-12-04T18:15:29.349Z,91.00
2017-12-04T18:17:57.615Z,91.00
2017-12-04T18:20:25.149Z,91.00
2017-12-04T18:22:53.314Z,91.00
2017-12-04T18:25:20.901Z,91.00
2017-12-04T18:27:48.509Z,91.00
2017-12-04T18:30:16.166Z,91.00
2017-12-04T18:32:43.820Z,91.00
2017-12-04T18:35:11.413Z,91.10
2017-12-04T18:37:39.018Z,91.10
2017-12-04T18:40:07.361Z,91.10
2017-12-04T18:42:34.971Z,91.00
2017-12-04T18:45:02.587Z,91.10
2017-12-04T18:47:30.178Z,91.00
2017-12-04T18:49:58.634Z,91.10
2017-12-04T18:52:26.275Z,91.10
2017-12-04T18:54:53.965Z,91.10
2017-12-04T18:57:21.743Z,91.10
2017-12-04T18:59:49.376Z,91.10
2017-12-04T19:02:17.127Z,91.10
2017-12-04T19:04:44.766Z,91.10
2017-12-04T19:07:18.097Z,91.10
2017-12-04T19:09:47.185Z,91.20
2017-12-04T22:25:50.817Z,90.60
2017-12-04T22:28:18.359Z,90.60
2017-12-04T22:30:45.867Z,90.60
2017-12-04T22:33:14.142Z,90.60
2017-12-04T22:35:42.392Z,90.60
2017-12-04T22:38:09.875Z,90.60
2017-12-04T22:40:38.162Z,90.60
2017-12-04T22:43:05.636Z,90.60
2017-12-04T22:45:33.135Z,90.60
2017-12-04T22:48:00.635Z,90.60
2017-12-04T22:50:28.183Z,90.60
2017-12-04T22:52:57.226Z,90.60
2017-12-04T22:55:24.727Z,90.70
2017-12-04T22:57:53.365Z,90.60
2017-12-04T23:00:30.548Z,90.60
2017-12-04T23:02:58.875Z,90.60
2017-12-04T23:05:26.344Z,90.70
2017-12-04T23:07:54.671Z,90.70
2017-12-04T23:10:22.141Z,90.60
2017-12-04T23:12:49.629Z,90.60
2017-12-04T23:15:17.882Z,90.60
2017-12-04T23:17:45.420Z,90.60
2017-12-04T23:20:12.896Z,90.60
2017-12-04T23:22:40.385Z,90.60
2017-12-04T23:25:08.628Z,90.60
2017-12-04T23:27:36.119Z,90.60
2017-12-04T23:30:04.393Z,90.60
2017-12-04T23:32:31.862Z,90.60
2017-12-04T23:40:55.182Z,90.60
2017-12-04T23:43:22.667Z,90.60
2017-12-04T23:45:50.153Z,90.60
2017-12-04T23:48:17.643Z,90.60
2017-12-04T23:50:45.161Z,90.60
2017-12-04T23:53:12.629Z,90.60
2017-12-04T23:55:40.122Z,90.60
2017-12-04T23:58:07.671Z,90.60
